Time;durP1;ratioP1;P1;durP2;ratioP2;P2;SDS_P1;SDS_P2;PMS_P1;PMS_P2;Temp;Humidity;BMP_temperature;BMP_pressure;BME280_temperature;BME280_humidity;BME280_pressure;Samples;Min_cycle;Max_cycle;Signal;HPM_P1;HPM_P2
2021/05/04 00:00:04;;;;;;;2.38;1.02;;;;;;;11.56;52.54;93666.84;5090987;28;20496;-44
2021/05/04 00:02:29;;;;;;;1.63;1.48;;;;;;;11.52;53.98;93677.50;5099785;28;20032;-43
2021/05/04 00:04:55;;;;;;;3.13;1.50;;;;;;;11.60;53.25;93681.03;5090934;28;20035;-44
2021/05/04 00:07:20;;;;;;;2.47;2.25;;;;;;;11.52;53.84;93682.31;5090863;28;20019;-46
2021/05/04 00:09:46;;;;;;;1.40;1.30;;;;;;;11.44;53.65;93685.78;5090476;28;20032;-44
2021/05/04 00:12:11;;;;;;;2.15;1.50;;;;;;;11.44;53.74;93685.03;5089830;28;20107;-43
2021/05/04 00:14:37;;;;;;;1.52;1.42;;;;;;;11.50;53.83;93690.44;5090350;28;20078;-47
2021/05/04 00:17:03;;;;;;;1.98;0.98;;;;;;;11.42;52.66;93687.63;5091070;28;20028;-46
2021/05/04 00:19:29;;;;;;;1.50;1.40;;;;;;;11.16;53.12;93687.91;5093512;28;20514;-48
2021/05/04 00:21:54;;;;;;;1.58;1.33;;;;;;;11.23;54.85;93696.22;5110664;28;20073;-48
2021/05/04 00:24:19;;;;;;;3.55;1.60;;;;;;;11.23;54.32;93698.25;5103664;28;20024;-46
2021/05/04 00:26:45;;;;;;;2.25;1.83;;;;;;;11.21;54.07;93707.09;5090295;28;20027;-48
2021/05/04 00:29:10;;;;;;;2.15;1.95;;;;;;;11.17;54.02;93698.44;5090095;28;20059;-51
2021/05/04 00:31:37;;;;;;;2.15;1.45;;;;;;;11.00;54.86;93695.38;5090541;28;20036;-49
2021/05/04 00:34:02;;;;;;;2.35;1.77;;;;;;;10.95;54.63;93703.84;5091666;28;20115;-52
2021/05/04 00:36:28;;;;;;;4.88;1.92;;;;;;;11.01;53.80;93699.63;5100471;28;20112;-49
2021/05/04 00:38:53;;;;;;;3.80;2.00;;;;;;;10.94;53.99;93699.59;5110867;28;20057;-50
2021/05/04 00:41:19;;;;;;;2.97;1.63;;;;;;;10.87;53.77;93687.22;5104666;28;20074;-50
2021/05/04 00:43:44;;;;;;;1.35;1.27;;;;;;;10.89;53.85;93708.78;5090079;28;20023;-49
2021/05/04 00:46:10;;;;;;;3.33;1.48;;;;;;;10.97;53.52;93710.31;5090011;28;20028;-49
2021/05/04 00:48:35;;;;;;;2.22;1.90;;;;;;;10.89;53.95;93712.28;5090873;28;20032;-49
2021/05/04 00:51:02;;;;;;;1.20;1.10;;;;;;;10.73;53.77;93704.44;5090053;28;20028;-50
2021/05/04 00:53:30;;;;;;;2.08;1.55;;;;;;;10.84;53.84;93718.69;5090083;28;20036;-48
2021/05/04 00:55:57;;;;;;;3.63;2.95;;;;;;;10.82;53.64;93712.25;5091635;28;20028;-49
2021/05/04 00:58:23;;;;;;;2.17;1.77;;;;;;;10.79;54.40;93705.03;5094550;28;20042;-51
2021/05/04 01:00:49;;;;;;;1.40;1.30;;;;;;;10.82;53.62;93709.47;5093059;28;20032;-50
2021/05/04 01:03:15;;;;;;;1.80;1.45;;;;;;;10.76;54.04;93708.91;5090312;28;20020;-52
2021/05/04 01:05:41;;;;;;;1.45;0.98;;;;;;;10.72;54.50;93702.97;5087879;28;20117;-49
2021/05/04 01:08:06;;;;;;;3.30;1.55;;;;;;;10.56;54.26;93708.41;5089495;28;20070;-52
2021/05/04 01:10:32;;;;;;;1.40;1.27;;;;;;;10.49;53.96;93686.25;5090355;28;20081;-47
2021/05/04 01:12:58;;;;;;;1.67;1.58;;;;;;;10.63;54.88;93699.41;5089261;28;20031;-50
2021/05/04 01:15:23;;;;;;;2.08;1.98;;;;;;;10.66;54.27;93695.56;5088122;28;20028;-48
2021/05/04 01:17:49;;;;;;;1.65;1.25;;;;;;;10.62;54.85;93692.44;5087636;28;20032;-46
2021/05/04 01:20:14;;;;;;;1.73;1.30;;;;;;;10.68;54.65;93684.72;5089412;28;20020;-47
2021/05/04 01:22:40;;;;;;;1.50;1.17;;;;;;;10.79;54.72;93677.41;5105923;28;20039;-51
2021/05/04 01:25:06;;;;;;;1.85;1.40;;;;;;;10.73;53.94;93685.13;5112790;28;20024;-49
2021/05/04 01:27:32;;;;;;;1.23;1.00;;;;;;;10.66;53.61;93683.78;5111361;28;20405;-49
2021/05/04 01:29:57;;;;;;;1.45;1.38;;;;;;;10.72;54.06;93686.41;5113204;28;20030;-51
2021/05/04 01:32:23;;;;;;;4.18;1.45;;;;;;;10.79;52.47;93675.38;5113108;28;20027;-48
2021/05/04 01:34:48;;;;;;;1.35;1.25;;;;;;;10.64;51.86;93665.00;5112734;28;20028;-52
2021/05/04 01:37:14;;;;;;;1.38;1.27;;;;;;;10.87;51.61;93686.50;5112950;28;20030;-49
2021/05/04 01:39:42;;;;;;;2.63;1.80;;;;;;;10.88;51.45;93668.63;5112867;28;20019;-49
2021/05/04 01:42:08;;;;;;;3.50;1.57;;;;;;;10.77;52.86;93671.69;5113107;28;20058;-47
2021/05/04 01:44:34;;;;;;;2.47;1.75;;;;;;;10.89;52.17;93672.88;5112948;28;20991;-48
2021/05/04 01:46:59;;;;;;;4.18;3.00;;;;;;;10.82;52.37;93673.56;5113082;28;20020;-48
2021/05/04 01:49:25;;;;;;;4.15;2.70;;;;;;;10.88;52.66;93668.63;5112997;27;20092;-49
2021/05/04 01:51:50;;;;;;;3.10;1.75;;;;;;;11.01;51.35;93666.47;5111427;28;20469;-48
2021/05/04 01:54:15;;;;;;;1.58;1.45;;;;;;;11.03;52.15;93668.69;5109899;28;20027;-50
2021/05/04 01:56:41;;;;;;;1.40;1.27;;;;;;;10.96;52.28;93672.19;5092265;28;20054;-49
2021/05/04 01:59:06;;;;;;;2.92;1.38;;;;;;;11.10;51.55;93663.22;5092212;28;20054;-47
2021/05/04 02:01:32;;;;;;;1.88;1.50;;;;;;;11.12;51.60;93673.69;5092067;28;20035;-48
2021/05/04 02:03:57;;;;;;;3.03;2.50;;;;;;;11.24;50.61;93669.34;5092118;28;20016;-51
2021/05/04 02:06:23;;;;;;;2.17;1.35;;;;;;;11.13;51.53;93684.19;5092347;28;20020;-48
2021/05/04 02:08:48;;;;;;;2.25;1.60;;;;;;;11.15;50.98;93669.84;5092099;28;20020;-47
2021/05/04 02:11:14;;;;;;;1.60;1.30;;;;;;;11.26;51.01;93672.28;5092063;28;20065;-51
2021/05/04 02:13:40;;;;;;;2.40;2.22;;;;;;;11.11;50.70;93672.97;5091761;28;20012;-50
2021/05/04 02:16:05;;;;;;;4.70;2.10;;;;;;;11.28;50.84;93678.00;5092179;28;20035;-47
2021/05/04 02:18:31;;;;;;;2.33;1.30;;;;;;;11.17;51.30;93656.22;5091943;28;20511;-47
2021/05/04 02:20:57;;;;;;;1.38;1.27;;;;;;;11.03;51.23;93658.38;5092458;28;20027;-46
2021/05/04 02:23:22;;;;;;;1.58;1.02;;;;;;;11.27;51.21;93676.53;5112304;28;20073;-47
2021/05/04 02:25:50;;;;;;;1.85;1.65;;;;;;;11.12;50.94;93671.69;5111967;28;20532;-48
2021/05/04 02:28:15;;;;;;;1.50;1.33;;;;;;;11.11;49.24;93659.13;5112297;28;20417;-49
2021/05/04 02:30:41;;;;;;;1.45;1.05;;;;;;;11.12;49.36;93670.94;5111345;28;20020;-48
2021/05/04 02:33:06;;;;;;;1.80;1.52;;;;;;;11.10;49.51;93676.28;5112068;27;20027;-48
2021/05/04 02:35:32;;;;;;;0.85;0.85;;;;;;;11.17;49.92;93678.34;5111632;28;20404;-47
2021/05/04 02:37:57;;;;;;;1.77;1.55;;;;;;;11.26;50.85;93683.34;5112299;28;20019;-48
2021/05/04 02:40:22;;;;;;;1.40;1.00;;;;;;;11.27;50.81;93668.97;5112248;27;20016;-46
2021/05/04 02:42:48;;;;;;;1.23;1.10;;;;;;;11.30;50.98;93670.63;5112195;27;20500;-46
2021/05/04 02:45:14;;;;;;;1.65;1.55;;;;;;;11.30;50.29;93672.66;5112256;28;20031;-49
2021/05/04 02:47:39;;;;;;;1.60;1.50;;;;;;;11.18;49.69;93674.28;5111868;28;20148;-53
2021/05/04 02:50:05;;;;;;;1.40;1.20;;;;;;;11.23;51.23;93670.63;5111914;28;20030;-49
2021/05/04 02:52:31;;;;;;;1.75;1.05;;;;;;;11.23;50.34;93678.91;5091847;28;20028;-50
2021/05/04 02:54:57;;;;;;;3.08;1.33;;;;;;;11.27;50.80;93682.78;5091524;28;20358;-51
2021/05/04 02:57:23;;;;;;;5.22;2.30;;;;;;;11.27;50.14;93682.03;5091575;28;20020;-48
2021/05/04 02:59:48;;;;;;;1.52;0.80;;;;;;;11.32;49.67;93679.13;5091382;28;20078;-50
2021/05/04 03:02:13;;;;;;;1.77;1.67;;;;;;;11.29;50.81;93682.25;5091333;28;20568;-51
2021/05/04 03:04:40;;;;;;;2.97;2.45;;;;;;;11.33;50.16;93685.38;5091250;28;20054;-51
2021/05/04 03:07:05;;;;;;;1.40;1.27;;;;;;;11.30;49.87;93689.25;5091212;28;20318;-50
2021/05/04 03:09:30;;;;;;;1.75;1.52;;;;;;;11.07;51.41;93702.22;5091058;28;20028;-52
2021/05/04 03:11:56;;;;;;;1.75;1.48;;;;;;;10.94;50.60;93691.28;5091082;28;20535;-53
2021/05/04 03:14:24;;;;;;;2.50;1.10;;;;;;;10.97;52.02;93699.25;5090490;28;20027;-50
2021/05/04 03:16:49;;;;;;;1.20;1.15;;;;;;;10.96;51.23;93681.19;5089411;28;20024;-48
2021/05/04 03:19:14;;;;;;;1.20;1.10;;;;;;;11.04;50.49;93690.25;5090977;28;20024;-47
2021/05/04 03:21:40;;;;;;;1.23;1.02;;;;;;;11.13;50.82;93692.50;5097418;28;20035;-51
2021/05/04 03:24:06;;;;;;;1.25;1.15;;;;;;;11.12;51.22;93702.09;5110318;28;20036;-50
2021/05/04 03:26:31;;;;;;;1.20;1.10;;;;;;;11.10;49.58;93698.38;5110760;28;20037;-51
2021/05/04 03:28:57;;;;;;;1.70;1.58;;;;;;;11.03;50.15;93690.78;5109486;28;20071;-53
2021/05/04 03:31:22;;;;;;;3.00;1.58;;;;;;;11.05;49.37;93693.75;5104489;28;20058;-48
2021/05/04 03:33:47;;;;;;;6.05;1.42;;;;;;;11.03;49.82;93688.03;5099131;28;20020;-47
2021/05/04 03:36:14;;;;;;;2.03;1.60;;;;;;;11.01;50.01;93701.66;5099980;28;20016;-46
2021/05/04 03:38:40;;;;;;;1.67;1.30;;;;;;;11.08;49.29;93703.72;5107765;28;20033;-46
2021/05/04 03:41:05;;;;;;;1.30;1.20;;;;;;;11.09;49.62;93707.94;5110566;28;20031;-48
2021/05/04 03:43:31;;;;;;;1.95;1.55;;;;;;;11.21;49.16;93698.81;5102881;28;20020;-48
2021/05/04 03:45:56;;;;;;;1.50;1.40;;;;;;;11.25;49.69;93695.69;5089569;28;20559;-49
2021/05/04 03:48:21;;;;;;;1.40;1.30;;;;;;;11.32;49.93;93701.25;5106009;28;20031;-49
2021/05/04 03:50:48;;;;;;;2.63;1.48;;;;;;;11.30;51.06;93694.78;5110440;28;20027;-50
2021/05/04 03:53:15;;;;;;;2.20;2.00;;;;;;;11.26;49.96;93683.34;5110310;28;20031;-46
2021/05/04 03:55:43;;;;;;;1.38;1.27;;;;;;;11.31;50.83;93685.94;5110524;28;20106;-47
2021/05/04 03:58:08;;;;;;;1.98;1.70;;;;;;;11.40;51.42;93696.47;5110307;28;20457;-47
2021/05/04 04:00:34;;;;;;;6.70;2.33;;;;;;;11.44;50.85;93698.88;5110524;28;20028;-49
2021/05/04 04:02:59;;;;;;;0.98;0.90;;;;;;;11.49;49.79;93700.00;5110224;28;20470;-49
2021/05/04 04:05:24;;;;;;;1.70;1.08;;;;;;;11.38;50.13;93701.81;5110318;28;20506;-50
2021/05/04 04:07:50;;;;;;;1.30;0.90;;;;;;;11.41;50.06;93705.50;5110371;28;20019;-50
2021/05/04 04:10:15;;;;;;;3.33;1.35;;;;;;;11.47;50.75;93702.56;5110143;28;20046;-47
2021/05/04 04:12:41;;;;;;;1.05;1.02;;;;;;;11.42;49.76;93693.91;5110221;28;20030;-47
2021/05/04 04:15:08;;;;;;;3.75;1.65;;;;;;;11.46;51.95;93696.28;5110106;28;20524;-47
2021/05/04 04:17:33;;;;;;;1.67;1.50;;;;;;;11.38;49.28;93688.00;5109940;28;20028;-48
2021/05/04 04:19:59;;;;;;;1.38;1.27;;;;;;;11.60;49.30;93705.94;5110260;28;20027;-47
2021/05/04 04:22:25;;;;;;;0.63;0.63;;;;;;;11.51;50.01;93711.25;5097093;28;20024;-48
2021/05/04 04:24:54;;;;;;;2.22;1.40;;;;;;;11.39;50.80;93719.16;5089646;28;20148;-46
2021/05/04 04:27:21;;;;;;;1.83;1.55;;;;;;;11.48;51.57;93713.06;5089917;28;20027;-46
2021/05/04 04:29:46;;;;;;;6.53;1.42;;;;;;;11.64;51.03;93711.09;5089700;28;20020;-46
2021/05/04 04:32:11;;;;;;;0.75;0.75;;;;;;;11.70;51.49;93715.19;5089526;28;20024;-47
2021/05/04 04:34:37;;;;;;;1.05;1.00;;;;;;;11.64;50.64;93708.31;5089761;28;20056;-48
2021/05/04 04:37:02;;;;;;;2.60;1.45;;;;;;;11.85;52.33;93720.75;5104791;28;20464;-49
2021/05/04 04:39:28;;;;;;;0.73;0.70;;;;;;;11.91;50.25;93729.63;5109737;28;20039;-47
2021/05/04 04:41:53;;;;;;;2.00;1.08;;;;;;;12.03;50.95;93716.94;5110008;28;20020;-52
2021/05/04 04:44:19;;;;;;;3.00;1.98;;;;;;;12.16;50.20;93719.53;5109658;28;20027;-46
2021/05/04 04:46:45;;;;;;;2.75;1.60;;;;;;;12.30;49.28;93717.28;5109752;28;20408;-49
2021/05/04 04:49:14;;;;;;;1.23;1.05;;;;;;;12.46;49.09;93729.13;5109995;28;20035;-48
2021/05/04 04:51:41;;;;;;;2.00;1.45;;;;;;;12.57;48.57;93726.72;5109608;28;20030;-49
2021/05/04 04:54:07;;;;;;;1.10;0.80;;;;;;;12.62;49.11;93733.38;5109402;28;20032;-46
2021/05/04 04:56:33;;;;;;;3.88;1.33;;;;;;;12.76;47.88;93738.16;5109932;28;20023;-49
2021/05/04 04:58:59;;;;;;;5.20;1.35;;;;;;;12.69;47.33;93711.19;5113678;28;20054;-50
2021/05/04 05:01:24;;;;;;;3.20;1.40;;;;;;;12.74;47.58;93726.88;5113666;28;20051;-48
2021/05/04 05:03:50;;;;;;;1.20;1.08;;;;;;;12.67;45.98;93729.66;5113856;28;20373;-49
2021/05/04 05:06:15;;;;;;;1.13;1.00;;;;;;;12.78;47.37;93746.63;5113645;28;20050;-46
2021/05/04 05:08:41;;;;;;;1.60;1.50;;;;;;;12.82;46.52;93746.28;5113737;28;20035;-47
2021/05/04 05:11:06;;;;;;;1.38;1.27;;;;;;;12.88;47.16;93749.59;5113756;28;20785;-49
2021/05/04 05:13:31;;;;;;;0.95;0.80;;;;;;;13.15;46.32;93745.13;5113522;28;20019;-48
2021/05/04 05:15:57;;;;;;;1.85;1.70;;;;;;;13.49;45.53;93745.38;5113428;28;20731;-48
2021/05/04 05:18:22;;;;;;;0.90;0.90;;;;;;;13.66;44.67;93745.47;5113300;28;20020;-49
2021/05/04 05:20:48;;;;;;;1.30;0.90;;;;;;;13.86;43.62;93740.22;5113552;28;20020;-48
2021/05/04 05:23:13;;;;;;;1.55;1.45;;;;;;;14.01;44.79;93745.69;5093321;28;20023;-47
2021/05/04 05:25:39;;;;;;;3.50;1.00;;;;;;;14.14;43.77;93750.97;5109080;28;20099;-47
2021/05/04 05:28:05;;;;;;;1.23;1.13;;;;;;;14.39;43.84;93755.28;5112958;28;20082;-50
2021/05/04 05:30:31;;;;;;;1.30;0.98;;;;;;;14.69;42.63;93748.75;5113419;28;20037;-52
2021/05/04 05:32:57;;;;;;;1.10;0.95;;;;;;;14.88;43.34;93748.94;5113315;27;20023;-49
2021/05/04 05:35:22;;;;;;;2.55;1.13;;;;;;;14.95;43.33;93750.19;5113187;28;20385;-46
2021/05/04 05:37:48;;;;;;;1.30;1.15;;;;;;;15.38;42.40;93744.00;5112948;28;20023;-47
2021/05/04 05:40:13;;;;;;;2.05;1.20;;;;;;;15.28;39.82;93748.75;5102041;28;20027;-46
2021/05/04 05:42:39;;;;;;;9.65;1.45;;;;;;;15.86;38.52;93736.78;5109583;28;20028;-49
2021/05/04 05:45:05;;;;;;;4.05;1.05;;;;;;;16.41;37.82;93744.56;5112242;28;20023;-47
2021/05/04 05:47:31;;;;;;;2.20;1.42;;;;;;;17.06;37.73;93733.47;5112749;28;20077;-48
2021/05/04 05:49:56;;;;;;;5.93;1.88;;;;;;;17.36;37.85;93741.31;5112815;28;20027;-47
2021/05/04 05:52:21;;;;;;;1.25;1.10;;;;;;;17.03;36.71;93725.53;5113030;28;20019;-47
2021/05/04 05:54:47;;;;;;;3.53;1.42;;;;;;;16.92;36.02;93737.25;5112560;28;20618;-51
2021/05/04 05:57:12;;;;;;;1.45;1.27;;;;;;;16.60;37.27;93724.41;5112893;28;20020;-50
2021/05/04 05:59:38;;;;;;;6.70;1.58;;;;;;;16.40;37.90;93734.72;5112866;28;20019;-51
2021/05/04 06:02:03;;;;;;;4.50;1.85;;;;;;;16.04;39.18;93725.59;5112407;28;20024;-54
2021/05/04 06:04:29;;;;;;;1.90;1.02;;;;;;;16.03;40.08;93732.44;5112755;28;20061;-51
2021/05/04 06:06:54;;;;;;;1.30;0.98;;;;;;;16.23;39.94;93729.22;5112348;28;20019;-51
2021/05/04 06:09:20;;;;;;;1.63;1.00;;;;;;;16.73;39.51;93728.84;5111275;28;20055;-54
2021/05/04 06:11:45;;;;;;;2.65;1.25;;;;;;;17.12;36.86;93724.81;5112533;28;20031;-50
2021/05/04 06:14:11;;;;;;;3.88;1.73;;;;;;;17.43;37.46;93712.50;5112461;28;20568;-54
2021/05/04 06:16:36;;;;;;;2.53;1.52;;;;;;;17.69;37.05;93707.38;5093263;28;20016;-49
2021/05/04 06:19:02;;;;;;;1.60;1.38;;;;;;;18.07;35.71;93715.69;5089680;28;20073;-53
2021/05/04 06:21:27;;;;;;;6.88;1.80;;;;;;;19.18;33.73;93712.88;5094292;28;20110;-51
2021/05/04 06:23:53;;;;;;;1.67;1.13;;;;;;;20.00;33.57;93714.75;5109485;28;20020;-52
2021/05/04 06:26:18;;;;;;;1.23;0.90;;;;;;;20.81;30.19;93705.75;5109737;28;20023;-54
2021/05/04 06:28:49;;;;;;;1.38;1.10;;;;;;;21.09;28.95;93710.97;5108240;28;20100;-49
2021/05/04 06:31:16;;;;;;;2.75;1.10;;;;;;;21.60;30.45;93711.88;5109418;28;20118;-51
2021/05/04 06:33:42;;;;;;;0.50;0.50;;;;;;;22.21;28.92;93707.59;5109246;28;20044;-53
2021/05/04 06:36:08;;;;;;;2.15;1.50;;;;;;;22.86;28.30;93713.91;5109419;28;20038;-48
2021/05/04 06:38:35;;;;;;;1.38;1.00;;;;;;;23.83;27.08;93708.34;5106265;28;20042;-52
2021/05/04 06:41:01;;;;;;;0.80;0.77;;;;;;;24.91;25.37;93709.97;5110133;28;20034;-53
2021/05/04 06:43:27;;;;;;;2.38;0.90;;;;;;;25.61;23.66;93691.84;5109899;28;20641;-55
2021/05/04 06:45:52;;;;;;;1.13;1.00;;;;;;;25.73;23.61;93695.19;5109513;27;20051;-54
2021/05/04 06:48:18;;;;;;;1.25;1.10;;;;;;;25.35;24.31;93703.47;5109153;28;20058;-54
2021/05/04 06:50:43;;;;;;;0.95;0.95;;;;;;;25.07;24.17;93690.94;5109208;28;20027;-56
2021/05/04 06:53:09;;;;;;;2.25;1.23;;;;;;;25.31;24.07;93685.59;5109083;28;20038;-54
2021/05/04 06:55:34;;;;;;;0.88;0.63;;;;;;;25.15;24.58;93682.06;5109000;28;20031;-51
2021/05/04 06:58:00;;;;;;;8.50;1.15;;;;;;;25.03;25.64;93673.06;5109332;28;20064;-54
2021/05/04 07:00:25;;;;;;;4.40;1.10;;;;;;;24.77;24.76;93664.16;5109327;28;20031;-52
2021/05/04 07:02:51;;;;;;;0.60;0.60;;;;;;;25.12;23.85;93675.59;5108626;28;20019;-52
2021/05/04 07:05:18;;;;;;;1.40;1.20;;;;;;;24.97;24.04;93681.97;5109114;28;20036;-50
2021/05/04 07:07:44;;;;;;;7.10;0.80;;;;;;;25.00;24.79;93666.59;5108827;28;20150;-51
2021/05/04 07:10:10;;;;;;;1.17;1.08;;;;;;;25.64;22.82;93671.50;5108146;28;20032;-52
2021/05/04 07:12:35;;;;;;;0.45;0.45;;;;;;;25.45;22.92;93683.38;5089405;28;20024;-52
2021/05/04 07:15:00;;;;;;;1.00;0.80;;;;;;;26.19;23.05;93671.63;5098652;28;20035;-53
2021/05/04 07:17:27;;;;;;;0.95;0.50;;;;;;;26.71;22.40;93668.00;5097318;28;20042;-52
2021/05/04 07:19:54;;;;;;;0.85;0.85;;;;;;;25.99;21.01;93665.16;5096983;28;20031;-53
2021/05/04 07:22:22;;;;;;;0.85;0.70;;;;;;;26.58;23.07;93666.06;5099131;28;20407;-49
2021/05/04 07:24:48;;;;;;;0.65;0.55;;;;;;;27.84;21.90;93662.81;5097359;28;20012;-50
2021/05/04 07:27:14;;;;;;;0.60;0.60;;;;;;;28.83;20.66;93669.53;5099022;28;20048;-48
2021/05/04 07:29:40;;;;;;;0.82;0.82;;;;;;;29.72;19.43;93659.25;5097124;28;20215;-49
2021/05/04 07:32:05;;;;;;;0.77;0.60;;;;;;;29.62;18.33;93658.28;5097591;28;20028;-52
2021/05/04 07:34:31;;;;;;;1.52;1.13;;;;;;;29.52;20.32;93653.03;5102359;28;20024;-54
2021/05/04 07:36:56;;;;;;;2.53;0.90;;;;;;;29.82;17.80;93642.47;5102556;28;20134;-48
2021/05/04 07:39:22;;;;;;;0.73;0.73;;;;;;;30.30;18.93;93651.47;5107111;28;20104;-50
2021/05/04 07:41:48;;;;;;;4.03;0.80;;;;;;;30.88;17.39;93648.56;5108753;28;20024;-53
2021/05/04 07:44:13;;;;;;;1.67;0.70;;;;;;;31.74;17.31;93649.56;5099123;28;20485;-55
2021/05/04 07:46:39;;;;;;;0.60;0.60;;;;;;;32.52;17.32;93635.91;5088066;28;20031;-52
2021/05/04 07:49:07;;;;;;;0.70;0.50;;;;;;;32.58;16.05;93641.72;5107233;28;20035;-54
2021/05/04 07:51:33;;;;;;;;;;;;;;;33.54;14.66;93642.31;5091740;28;20081;-55
2021/05/04 07:53:58;;;;;;;1.92;0.85;;;;;;;33.76;14.27;93642.56;5087841;28;19920;-51
2021/05/04 07:56:24;;;;;;;6.15;0.95;;;;;;;34.02;15.63;93642.84;5088289;28;20059;-51
2021/05/04 07:58:49;;;;;;;0.80;0.55;;;;;;;34.81;14.80;93647.06;5107635;28;20123;-47
2021/05/04 08:01:15;;;;;;;0.40;0.40;;;;;;;35.35;13.46;93646.63;5108378;28;20023;-52
2021/05/04 08:03:40;;;;;;;0.60;0.60;;;;;;;34.13;12.86;93635.06;5107726;28;20019;-54
2021/05/04 08:06:06;;;;;;;1.17;0.43;;;;;;;33.72;13.41;93639.66;5107059;28;20035;-48
2021/05/04 08:08:31;;;;;;;0.52;0.50;;;;;;;34.20;14.42;93640.13;5103945;28;20795;-50
2021/05/04 08:10:56;;;;;;;0.57;0.57;;;;;;;35.03;14.24;93627.13;5098877;28;20039;-54
2021/05/04 08:13:22;;;;;;;0.60;0.60;;;;;;;35.60;13.78;93636.00;5103271;28;20507;-53
2021/05/04 08:15:50;;;;;;;1.42;0.80;;;;;;;35.62;13.50;93633.84;5100338;28;20107;-50
2021/05/04 08:18:17;;;;;;;1.00;0.57;;;;;;;35.95;12.59;93631.06;5091185;28;20500;-55
2021/05/04 08:20:53;;;;;;;0.60;0.50;;;;;;;36.36;14.05;93626.78;5093474;28;20051;-53
2021/05/04 08:23:21;;;;;;;0.55;0.55;;;;;;;36.16;12.91;93615.28;5095771;28;20028;-51
2021/05/04 08:25:47;;;;;;;;;;;;;;;35.94;13.71;93635.34;5097425;28;20890;-60
2021/05/04 08:28:12;;;;;;;0.60;0.50;;;;;;;36.09;13.70;93625.34;5097881;28;19915;-57
2021/05/04 08:30:37;;;;;;;0.82;0.45;;;;;;;36.09;12.76;93610.97;5092763;28;20042;-59
2021/05/04 08:33:03;;;;;;;0.98;0.60;;;;;;;35.50;11.11;93619.44;5092420;28;20024;-58
2021/05/04 08:35:29;;;;;;;0.43;0.40;;;;;;;35.87;11.90;93608.75;5098934;28;20016;-49
2021/05/04 08:37:55;;;;;;;1.95;0.40;;;;;;;36.01;12.69;93605.22;5095337;28;20478;-50
2021/05/04 08:40:21;;;;;;;0.68;0.57;;;;;;;36.08;13.35;93603.78;5097040;28;20440;-48
2021/05/04 08:42:46;;;;;;;0.75;0.75;;;;;;;35.72;12.34;93582.16;5099050;28;20023;-50
2021/05/04 08:45:14;;;;;;;1.15;0.90;;;;;;;35.40;13.21;93602.16;5099415;28;21410;-50
2021/05/04 08:47:43;;;;;;;1.13;0.80;;;;;;;34.91;12.86;93600.50;5094894;28;20055;-50
2021/05/04 08:50:09;;;;;;;0.50;0.50;;;;;;;34.62;12.43;93590.28;5096074;28;20030;-52
2021/05/04 08:52:35;;;;;;;0.80;0.60;;;;;;;34.12;14.40;93594.22;5096478;28;20117;-48
2021/05/04 08:55:01;;;;;;;0.57;0.57;;;;;;;33.76;15.10;93593.88;5096014;28;20077;-47
2021/05/04 08:57:26;;;;;;;0.77;0.60;;;;;;;33.06;15.33;93590.22;5091217;28;20043;-47
2021/05/04 08:59:52;;;;;;;0.45;0.45;;;;;;;32.64;15.76;93587.47;5098815;28;20021;-50
2021/05/04 09:02:22;;;;;;;0.50;0.50;;;;;;;31.69;15.20;93585.97;5102862;28;20492;-48
2021/05/04 09:04:54;;;;;;;0.47;0.47;;;;;;;31.23;16.04;93585.13;5106865;28;20063;-49
2021/05/04 09:07:32;;;;;;;0.57;0.57;;;;;;;31.34;17.07;93595.28;5108194;28;20023;-51
2021/05/04 09:13:25;;;;;;;0.82;0.60;;;;;;;30.67;17.75;93588.22;5108663;28;20127;-50
2021/05/04 09:21:14;;;;;;;1.17;0.88;;;;;;;30.31;17.72;93589.56;5100577;28;20023;-47
2021/05/04 09:23:42;;;;;;;0.50;0.50;;;;;;;31.52;16.71;93581.38;5100303;28;20027;-47
2021/05/04 09:26:21;;;;;;;1.17;0.55;;;;;;;31.84;15.90;93581.22;5097037;28;20107;-49
2021/05/04 09:28:50;;;;;;;0.30;0.30;;;;;;;31.45;15.69;93584.84;5097247;28;20040;-48
2021/05/04 09:31:27;;;;;;;0.52;0.52;;;;;;;31.06;17.73;93578.34;5096565;28;20024;-48
2021/05/04 09:33:54;;;;;;;1.63;0.68;;;;;;;30.17;17.69;93572.84;5095891;28;20020;-48
2021/05/04 09:36:45;;;;;;;0.40;0.40;;;;;;;29.81;18.60;93581.25;5098984;28;20047;-48
2021/05/04 09:39:14;;;;;;;0.80;0.80;;;;;;;29.42;19.18;93566.69;5095543;28;20102;-48
2021/05/04 09:41:39;;;;;;;0.85;0.65;;;;;;;29.12;19.23;93570.19;5094937;28;20463;-48
2021/05/04 09:44:05;;;;;;;0.30;0.30;;;;;;;29.43;19.03;93560.34;5101111;28;20020;-50
2021/05/04 09:46:48;;;;;;;0.93;0.68;;;;;;;28.84;18.62;93563.00;5099234;28;20073;-46
2021/05/04 09:49:34;;;;;;;3.30;0.80;;;;;;;28.72;19.41;93554.13;5099700;28;20424;-46
2021/05/04 09:55:02;;;;;;;0.75;0.75;;;;;;;27.98;18.48;93567.50;5099314;28;20039;-48
2021/05/04 09:57:32;;;;;;;1.60;0.70;;;;;;;27.97;19.16;93560.41;5097109;28;20060;-52
2021/05/04 09:59:58;;;;;;;0.50;0.50;;;;;;;27.65;19.68;93554.41;5101384;28;20077;-51
2021/05/04 10:02:23;;;;;;;0.65;0.63;;;;;;;26.71;19.68;93553.94;5097020;28;20501;-53
2021/05/04 10:04:52;;;;;;;0.95;0.77;;;;;;;25.56;20.06;93553.13;5098960;28;20035;-54
2021/05/04 10:07:20;;;;;;;0.95;0.68;;;;;;;24.82;23.50;93553.53;5100053;28;20051;-52
2021/05/04 10:09:46;;;;;;;1.15;0.65;;;;;;;24.75;21.62;93545.47;5096980;28;20032;-51
2021/05/04 10:12:13;;;;;;;1.02;0.60;;;;;;;24.02;21.81;93555.53;5102079;28;20081;-52
2021/05/04 10:14:41;;;;;;;0.85;0.82;;;;;;;23.30;22.77;93539.44;5099159;28;20132;-53
2021/05/04 10:17:07;;;;;;;1.10;0.80;;;;;;;23.68;22.63;93542.66;5100259;28;20019;-52
2021/05/04 10:19:35;;;;;;;0.65;0.65;;;;;;;24.03;23.13;93557.00;5105242;28;20070;-50
2021/05/04 10:22:00;;;;;;;0.55;0.55;;;;;;;23.63;22.52;93555.84;5102376;28;20043;-48
2021/05/04 10:24:26;;;;;;;3.55;0.95;;;;;;;24.08;23.97;93547.41;5107453;28;20019;-51
2021/05/04 10:26:52;;;;;;;2.75;1.13;;;;;;;24.53;25.01;93541.66;5097315;28;20020;-48
2021/05/04 10:29:18;;;;;;;0.65;0.57;;;;;;;24.90;22.00;93538.31;5102138;28;20047;-49
2021/05/04 10:31:47;;;;;;;1.15;0.90;;;;;;;26.58;22.92;93503.91;5094999;28;20016;-55
2021/05/04 10:34:34;;;;;;;2.22;1.13;;;;;;;26.01;20.22;93527.28;5102450;28;20008;-49
2021/05/04 10:37:02;;;;;;;0.52;0.50;;;;;;;25.37;21.92;93527.56;5102252;28;20023;-53
2021/05/04 10:39:35;;;;;;;1.40;0.80;;;;;;;26.65;22.84;93531.06;5097891;28;20027;-52
2021/05/04 10:42:00;;;;;;;0.93;0.57;;;;;;;26.81;20.80;93523.91;5099967;28;20055;-54
2021/05/04 10:44:26;;;;;;;0.70;0.70;;;;;;;25.87;20.29;93509.78;5101044;28;20026;-58
2021/05/04 10:46:52;;;;;;;2.85;1.30;;;;;;;25.41;21.27;93522.06;5098473;28;20025;-54
2021/05/04 10:49:19;;;;;;;2.05;0.70;;;;;;;25.31;24.22;93527.31;5100399;28;20072;-54
2021/05/04 10:51:52;;;;;;;1.98;1.20;;;;;;;25.58;22.22;93515.00;5096318;28;20451;-56
2021/05/04 10:54:22;;;;;;;1.52;0.55;;;;;;;25.63;21.98;93519.41;5090899;28;20473;-55
2021/05/04 10:56:49;;;;;;;2.72;0.50;;;;;;;25.70;23.72;93526.78;5090964;28;20019;-55
2021/05/04 10:59:20;;;;;;;0.77;0.70;;;;;;;26.83;20.61;93521.13;5099359;28;20034;-50
2021/05/04 11:02:10;;;;;;;1.95;0.68;;;;;;;26.61;20.33;93511.13;5111210;28;20035;-55
2021/05/04 11:04:43;;;;;;;0.82;0.80;;;;;;;26.87;19.89;93501.47;5111378;28;20024;-55
2021/05/04 11:07:08;;;;;;;1.60;0.82;;;;;;;27.21;21.53;93489.81;5111644;28;20051;-55
2021/05/04 11:09:40;;;;;;;1.75;0.88;;;;;;;27.00;20.66;93479.94;5111128;28;20020;-56
2021/05/04 11:12:09;;;;;;;0.93;0.82;;;;;;;26.37;20.12;93484.75;5111501;28;20157;-54
2021/05/04 11:14:37;;;;;;;1.00;0.80;;;;;;;26.24;19.88;93486.44;5092234;28;20040;-57
2021/05/04 11:17:12;;;;;;;1.88;1.10;;;;;;;26.26;21.44;93478.00;5104889;28;20028;-55
2021/05/04 11:19:41;;;;;;;0.90;0.70;;;;;;;26.27;22.47;93470.97;5091151;28;20389;-52
2021/05/04 11:22:20;;;;;;;1.27;0.85;;;;;;;26.10;23.44;93471.75;5101095;28;20027;-55
2021/05/04 11:24:51;;;;;;;0.82;0.82;;;;;;;26.07;22.62;93473.03;5101924;27;20042;-53
2021/05/04 11:27:19;;;;;;;1.30;0.88;;;;;;;25.98;20.82;93471.28;5102617;28;20586;-54
2021/05/04 11:29:50;;;;;;;4.63;1.25;;;;;;;26.12;22.10;93471.81;5094052;28;20123;-51
2021/05/04 11:32:39;;;;;;;0.95;0.85;;;;;;;26.29;20.62;93471.06;5100369;28;20031;-55
2021/05/04 11:35:06;;;;;;;1.73;0.93;;;;;;;26.43;20.68;93453.81;5110994;28;20027;-57
2021/05/04 11:37:49;;;;;;;1.88;0.90;;;;;;;26.22;22.98;93461.63;5110370;28;20069;-58
2021/05/04 11:40:18;;;;;;;0.50;0.50;;;;;;;25.78;22.57;93462.03;5096438;28;20106;-50
2021/05/04 11:42:45;;;;;;;1.00;0.77;;;;;;;25.67;23.78;93454.53;5100520;28;20019;-54